Avoca, IA

9:05 AM CDT on August 30, 2016 (GMT -0500)
Shelby, IA | | Change Station
Active Advisory: Flash Flood Watch

Elev 1329 ft 41.53 °N, 95.46 °W | Updated 4 seconds ago

Overcast
Overcast
70.3 °F
Feels Like 75 °F
N
0.0
Wind Variable Wind from North
Gusts 2.0 mph

Today
High -- | Low -- °F
--% Chance of Precip.
Yesterday
High -- | Low -- °F
Precip. -- in
Pressure 30.25 in
Visibility 9.0 miles
Clouds Few 400 ft
Mostly Cloudy 7000 ft
Overcast 9500 ft
Heat Index 75 °F
Dew Point 58 °F
Humidity 65%
Rainfall 0.02 in
Snow Depth Not available.
6:46 AM 7:56 PM
Waning Crescent, 3% visible
METAR KHNR 301355Z AUTO 05003KT 9SM FEW004 BKN070 OVC095 21/21 A3025 RMK AO2
Pressure 30.25 in
Visibility 9.0 miles
Clouds Few 400 ft
Mostly Cloudy 7000 ft
Overcast 9500 ft
Heat Index 75 °F
Dew Point 58 °F
Humidity 65%
Rainfall 0.02 in
Snow Depth Not available.
6:46 AM 7:56 PM
Waning Crescent, 3% visible
METAR KHNR 301355Z AUTO 05003KT 9SM FEW004 BKN070 OVC095 21/21 A3025 RMK AO2

10-Day Weather Forecast

Almanac

Astronomy

Aug. 30, 2016 Rise Set
Actual Time
Civil Twilight
Nautical Twilight
Astronomical Twilight
Moon
Length of Visible Light
Length of Day
Tomorrow will be .
, % of the Moon is Illuminated

Today's Extremes

State Highs State Lows

Community

WunderPhotos

Upload Photos

1,935,845 photos uploaded!

WunderBlog® & News

Nearby

Air Quality

  Air Quality AQ Index Pollutant
Not available.

Snow Depth

Station Depth Elevation

Earthquake Activity

City Distance Mag. Time & Date
Minimum magnitude displayed is 2.5.

Coastal Water Temperatures

Place Temperature

Stations

Nearby Weather Stations

Station Location Temp. Windchill Dew Point Humidity Wind Precip. Elev Updated Type
                   

Watches & Warnings

Flash Flood Watch
Issued: 4:07 AM CDT Aug. 30, 2016 – National Weather Service

... Flash Flood Watch remains in effect through this afternoon...

The Flash Flood Watch continues for

* portions of southwest Iowa and Nebraska... including the
following areas... in southwest Iowa... Fremont... Mills...
Montgomery... Page and Pottawattamie. In Nebraska... Cass...
Douglas... gage... Jefferson... Johnson... Lancaster... Nemaha...
Otoe... Pawnee... Richardson... Saline... Sarpy and Washington.

* Additional heavy rainfall will be possible with additional
thunderstorm activity expected throughout most of this
morning. Flooding of low lying areas could occur... along with
ponding of water on roadways. Also... flash flooding may occur
along small streams and creeks.

Precautionary/preparedness actions...

A Flash Flood Watch means that conditions may develop that lead
to flash flooding. Flash flooding is a very dangerous situation.

You should monitor later forecasts and be prepared to take action
should flash flood warnings be issued.